Date,TemperatureHighF,TemperatureAvgF,TemperatureLowF,DewpointHighF,DewpointAvgF,DewpointLowF,HumidityHigh,HumidityAvg,HumidityLow,PressureMaxIn,PressureMinIn,WindSpeedMaxMPH,WindSpeedAvgMPH,GustSpeedMaxMPH,PrecipitationSumIn
2013-1-1,32,23,11,19,6,-5,78,50,24,30.41,30.30,8,2,13,0.08
2013-1-2,48,36,27,22,11,-6,50,35,18,30.32,30.03,8,1,13,0.02
2013-1-3,39,29,23,25,18,9,98,64,41,30.23,29.98,12,2,17,0.00
2013-1-4,35,27,21,23,13,-11,91,60,17,30.40,30.22,8,2,13,0.01
2013-1-5,44,37,30,11,3,-9,32,24,17,30.42,30.27,8,3,11,0.00
2013-1-6,46,40,34,16,2,-12,47,23,10,30.27,29.87,23,12,38,0.00
2013-1-7,37,32,27,21,18,12,74,56,36,29.95,29.78,22,7,41,0.00
2013-1-8,43,37,31,22,15,6,68,42,24,30.15,29.93,18,9,29,0.00
2013-1-9,51,41,35,16,9,3,41,27,19,30.25,30.07,16,5,33,0.00
2013-1-10,43,38,29,24,14,2,80,37,19,30.07,29.74,36,17,68,0.00
2013-1-11,29,20,14,26,11,-4,92,70,30,30.07,29.72,18,6,54,0.00
2013-1-12,20,14,10,7,2,-3,68,58,45,30.29,30.06,13,2,20,0.00
2013-1-13,24,16,8,6,-2,-13,61,45,32,30.30,30.18,9,3,15,0.00
2013-1-19,49,45,38,22,19,13,50,36,29,30.17,30.12,7,3,11,0.00
2013-1-20,53,47,37,32,26,20,58,45,37,30.16,30.04,11,5,18,0.00
2013-1-21,56,47,41,34,30,27,62,51,37,30.09,29.99,9,3,14,0.00
2013-1-22,57,44,30,30,26,20,74,53,27,30.24,30.09,10,2,16,0.00
2013-1-23,56,44,33,30,25,18,78,48,31,30.28,30.20,14,4,21,0.00
2013-1-24,48,45,41,41,34,26,92,68,45,30.24,30.13,17,6,31,0.26
2013-1-25,55,48,43,42,38,34,83,69,58,30.18,29.95,23,5,32,0.00
2013-1-26,45,40,37,41,38,34,96,92,79,29.97,29.80,20,6,55,0.76
2013-1-27,38,37,35,37,35,33,96,94,90,30.03,29.93,26,12,42,0.01
2013-1-28,36,28,20,35,27,18,97,93,84,29.97,29.87,30,12,58,0.01
2013-1-29,24,20,15,17,15,11,92,81,68,30.35,29.95,17,6,30,0.09
2013-1-30,42,28,17,21,15,5,81,58,28,30.50,30.35,19,1,36,0.00
2013-1-31,48,39,27,21,12,3,73,35,18,30.37,30.19,11,2,16,0.00
2013-2-1,52,43,36,25,10,-1,42,26,16,30.25,30.15,7,2,11,0.00
2013-2-2,62,39,28,28,17,-9,65,46,7,30.34,30.23,1,0,5,0.00
2013-2-3,52,44,35,32,20,3,73,41,17,30.26,29.95,11,3,24,0.00
2013-2-4,48,41,36,37,33,30,86,74,58,30.01,29.91,13,4,18,0.00
2013-2-5,48,42,33,38,33,29,87,72,57,30.02,29.94,16,6,25,0.00
2013-2-6,45,38,34,35,32,29,86,76,62,30.05,29.89,15,7,30,0.00
2013-2-7,45,38,28,33,28,22,89,68,49,30.15,30.03,19,4,27,0.00
2013-2-8,40,37,28,24,17,10,72,46,30,30.03,29.73,29,15,60,0.00
2013-2-9,28,22,18,22,17,14,91,83,60,30.15,29.66,21,9,47,0.00
2013-2-10,34,24,15,20,13,5,92,62,38,30.18,30.08,17,5,32,0.04
2013-2-11,25,21,16,22,15,6,99,78,49,30.23,30.01,14,6,28,0.00
2013-2-12,18,16,13,16,13,10,91,89,82,30.34,30.24,11,5,17,0.00
2013-2-13,46,34,22,22,18,13,75,54,27,30.32,30.19,6,0,13,0.01
2013-2-14,42,34,22,22,15,7,76,47,24,30.23,30.16,11,4,20,0.00
2013-2-15,49,36,26,19,14,5,71,45,18,30.36,30.19,6,1,14,0.00
2013-2-16,51,44,34,11,0,-11,39,16,9,30.37,30.04,15,6,22,0.00
2013-2-17,48,42,35,16,8,-1,44,25,16,30.04,29.82,20,12,35,0.00
2013-2-18,46,38,29,18,11,3,49,32,18,30.09,29.90,19,6,30,0.00
2013-2-19,42,37,30,20,11,7,65,34,25,29.98,29.67,31,20,51,0.00
2013-2-20,30,21,15,24,19,12,93,89,62,29.98,29.59,30,11,53,0.00
2013-2-21,32,22,13,29,20,10,92,90,86,30.19,29.98,5,0,13,0.01
2013-2-22,32,24,15,29,20,13,92,82,60,30.30,30.10,9,2,18,0.13
2013-2-23,44,34,23,20,14,10,63,44,27,30.29,29.88,18,6,29,0.00
2013-2-24,32,23,19,19,11,2,90,60,43,30.19,29.74,16,4,33,0.00
2013-2-25,43,26,13,18,9,-8,72,50,16,30.39,30.18,2,1,11,0.04
2013-2-26,43,35,24,13,4,-8,54,27,15,30.20,30.01,11,4,25,0.00
2013-2-27,42,29,21,14,6,-4,59,37,21,30.33,30.10,10,3,16,0.00
2013-2-28,45,30,17,12,5,-6,63,37,16,30.51,30.31,13,4,19,0.00
2013-3-1,58,44,32,21,13,-5,45,28,17,30.49,30.27,17,4,24,0.00
2013-3-2,60,50,37,27,13,2,37,24,11,30.32,30.13,12,3,17,0.00
2013-3-3,55,50,44,25,12,-3,41,23,13,30.14,29.86,19,7,33,0.00
2013-3-4,47,41,29,28,18,6,69,43,21,30.11,29.81,6,2,19,0.00
2013-3-5,56,43,30,25,21,19,69,43,25,30.21,30.06,17,4,29,0.00
2013-3-6,56,48,42,27,22,12,46,36,27,30.06,29.89,17,8,31,0.00
2013-3-7,54,45,36,27,20,12,57,38,20,29.94,29.83,26,5,49,0.00
2013-3-8,41,33,23,34,28,20,100,85,55,29.90,29.68,38,18,69,0.08
2013-3-9,28,25,23,25,23,20,94,90,87,30.20,29.89,17,5,36,0.00
2013-3-10,37,30,25,28,24,20,95,78,52,30.31,30.18,16,8,25,0.11
2013-3-11,49,42,30,31,15,0,66,37,17,30.31,30.09,8,3,13,0.00
2013-3-12,62,46,34,29,18,1,68,36,16,30.15,30.05,7,1,14,0.00
2013-3-13,61,47,32,28,23,18,70,43,22,30.26,30.14,7,1,16,0.00
2013-3-14,64,54,46,23,18,13,34,24,16,30.19,30.06,11,2,20,0.00
2013-3-15,66,56,47,24,18,10,32,23,11,30.07,29.87,11,3,23,0.00
2013-3-16,60,53,46,26,18,9,39,26,16,29.87,29.71,16,7,31,0.00
2013-3-17,55,49,43,25,21,16,44,34,22,29.91,29.74,21,6,37,0.00
2013-3-18,60,48,41,24,18,13,46,31,16,29.98,29.87,10,3,19,0.00
2013-3-19,55,45,34,28,24,19,67,45,25,30.09,29.89,8,2,25,0.00
2013-3-20,59,50,41,28,22,17,48,34,24,30.08,29.85,12,4,18,0.00
2013-3-21,55,49,44,29,23,18,49,37,24,29.85,29.69,15,8,28,0.00
2013-3-22,53,46,41,30,26,23,64,45,35,29.78,29.65,15,8,30,0.00
2013-3-23,51,43,38,31,12,1,68,31,16,29.99,29.76,10,4,25,0.00
2013-3-24,51,42,35,12,4,-8,35,21,12,30.01,29.92,11,4,20,0.00
2013-3-25,54,45,35,18,14,6,38,28,21,30.05,29.95,10,3,18,0.00
2013-3-26,59,51,41,18,13,10,31,22,15,30.01,29.87,17,4,33,0.00
2013-3-27,58,50,44,22,16,11,34,26,21,29.98,29.84,18,6,32,0.00
2013-3-28,62,50,44,27,21,14,45,32,19,30.04,29.92,11,4,25,0.00
2013-3-29,60,52,43,32,21,10,54,30,19,30.06,29.99,11,6,22,0.00
2013-3-30,58,51,44,28,19,10,44,29,19,30.05,29.91,11,4,20,0.00
2013-3-31,67,48,35,27,23,17,66,40,22,30.07,29.95,3,1,10,0.00
2013-4-1,59,49,34,31,24,16,72,39,23,29.96,29.87,13,4,27,0.00
2013-4-2,54,46,40,22,16,-2,45,30,14,29.95,29.83,11,5,23,0.00
2013-4-3,56,47,39,27,23,19,52,39,27,30.08,29.94,11,4,17,0.00
2013-4-4,62,54,42,24,16,7,43,24,11,30.08,29.96,12,4,17,0.00
2013-4-5,65,55,47,27,20,14,42,27,16,29.96,29.79,13,4,26,0.00
2013-4-6,65,51,37,28,25,21,57,37,20,29.91,29.79,10,2,27,0.00
2013-4-7,61,52,46,32,27,23,49,37,25,29.86,29.68,17,7,38,0.00
2013-4-8,53,46,29,34,28,22,89,53,31,29.69,29.34,37,18,62,0.00
2013-4-9,35,31,27,27,24,18,93,78,56,29.99,29.37,5,3,17,0.01
2013-4-10,47,35,26,25,21,17,73,58,36,30.09,29.97,3,1,11,0.00
2013-4-11,59,44,32,28,20,15,57,39,20,30.08,29.86,10,2,18,0.00
2013-4-12,55,46,40,26,20,16,44,36,28,29.88,29.78,10,2,17,0.00
2013-4-13,58,51,42,26,22,18,42,32,24,29.87,29.72,22,6,41,0.00
2013-4-14,57,49,42,33,24,17,58,38,26,29.75,29.67,22,12,41,0.00
2013-4-15,59,49,39,33,26,20,60,44,23,29.76,29.66,10,5,27,0.00
2013-4-16,57,48,42,35,26,14,73,43,24,29.76,29.69,29,9,51,0.00
2013-4-17,42,36,30,36,21,7,91,59,32,30.04,29.60,33,10,55,0.00
2013-4-18,45,36,25,11,7,3,52,31,22,30.25,30.04,14,6,22,0.00
2013-4-19,56,45,33,14,6,-1,29,20,14,30.24,30.00,11,4,21,0.00
2013-4-20,58,49,39,18,10,-4,28,21,14,30.01,29.91,12,4,24,0.00
2013-4-21,64,55,45,21,16,12,31,22,16,30.03,29.94,12,4,22,0.00
2013-4-22,66,57,47,20,16,11,29,20,14,29.94,29.76,14,7,31,0.00
2013-4-23,62,54,47,24,18,13,38,24,18,29.85,29.70,20,7,41,0.00
2013-4-24,63,55,46,25,21,16,39,27,18,29.89,29.83,19,9,33,0.00
2013-4-25,56,50,42,25,20,2,45,32,17,29.99,29.78,32,14,52,0.00
2013-4-26,62,51,39,26,15,-3,37,24,13,30.12,29.99,11,3,19,0.00
2013-4-27,64,55,46,27,21,16,38,27,17,30.09,29.93,12,3,20,0.00
2013-4-28,69,59,51,22,16,12,28,19,14,29.93,29.76,12,4,21,0.00
2013-4-29,70,62,53,22,16,9,24,17,12,29.78,29.66,13,4,26,0.00
2013-4-30,68,60,53,23,18,12,31,19,14,29.71,29.64,18,5,33,0.00
2013-5-1,65,55,49,24,19,12,33,24,15,29.98,29.68,23,8,37,0.00
2013-5-2,64,55,46,22,16,10,34,22,16,30.08,29.95,11,5,23,0.00
2013-5-3,61,52,41,19,14,6,33,23,11,30.03,29.85,12,5,28,0.00
2013-5-4,64,56,48,25,17,12,32,22,17,29.85,29.67,29,8,47,0.00
2013-5-5,61,52,41,35,24,15,78,35,20,29.84,29.71,29,16,47,0.05
2013-5-6,54,47,39,40,35,29,90,65,41,29.97,29.78,22,8,40,0.14
2013-5-7,54,46,40,38,29,19,84,54,27,29.96,29.90,26,13,45,0.00
2013-5-8,56,46,34,39,30,22,82,55,32,29.99,29.91,14,5,23,0.00
2013-5-9,57,48,38,37,30,20,85,54,24,29.99,29.91,14,3,21,0.00
2013-5-10,59,49,41,37,30,27,66,50,33,30.10,29.94,16,3,28,0.03
2013-5-11,60,52,44,37,31,28,64,46,31,30.12,30.04,17,6,33,0.00
2013-5-12,64,55,46,35,31,26,58,40,27,30.11,30.00,17,10,34,0.00
2013-5-13,67,60,52,33,25,16,37,27,20,30.04,29.91,13,6,27,0.00
2013-5-14,70,62,50,32,26,15,37,26,20,29.93,29.81,13,4,21,0.00
2013-5-15,71,62,54,33,28,22,35,28,19,29.89,29.79,14,4,25,0.00
2013-5-16,72,59,44,29,23,14,51,26,13,29.87,29.76,13,3,30,0.00
2013-5-17,66,58,51,29,24,17,39,28,16,29.83,29.75,19,8,34,0.00
2013-5-18,63,55,48,30,24,14,49,31,16,29.87,29.78,18,8,35,0.00
2013-5-19,66,56,43,36,30,26,57,39,23,29.85,29.77,12,4,23,0.00
2013-5-20,66,56,47,32,26,17,51,32,22,29.86,29.76,13,4,32,0.00
2013-5-21,70,58,44,27,19,15,34,22,15,29.88,29.77,12,3,20,0.00
2013-5-22,70,63,56,26,20,15,25,20,13,29.77,29.65,16,6,31,0.00
2013-5-23,74,61,50,34,22,10,43,25,9,29.78,29.65,15,4,32,0.00
2013-5-24,70,61,52,37,26,16,55,30,13,29.84,29.74,16,8,31,0.00
2013-5-25,72,60,51,33,22,5,48,25,9,29.88,29.78,14,5,24,0.00
2013-5-26,67,59,51,24,17,9,33,20,11,29.90,29.80,18,8,34,0.00
2013-5-27,72,61,54,27,19,10,31,20,10,29.85,29.69,15,7,31,0.00
2013-5-28,67,59,52,31,21,12,41,24,15,29.69,29.57,15,9,33,0.00
2013-5-29,68,58,49,40,33,27,59,39,26,29.71,29.59,11,4,25,0.00
2013-5-30,70,60,50,46,39,31,78,47,27,29.79,29.67,12,6,27,0.00
2013-5-31,74,62,53,50,42,32,82,48,27,29.79,29.71,16,4,26,0.00
2013-6-1,78,67,55,43,36,20,51,33,20,29.78,29.69,9,3,16,0.00
2013-6-2,77,69,58,41,34,28,40,29,19,29.72,29.60,19,5,31,0.00
2013-6-3,74,65,58,36,27,20,43,24,15,29.75,29.61,18,7,33,0.00
2013-6-4,77,66,58,39,31,25,49,29,15,29.78,29.70,12,3,19,0.00
2013-6-5,74,65,56,35,26,17,41,24,13,29.77,29.70,13,4,22,0.00
2013-6-6,78,67,55,34,28,19,32,23,19,29.76,29.68,11,4,19,0.00
2013-6-7,80,70,61,37,30,24,31,22,17,29.72,29.60,10,3,19,0.00
2013-6-8,80,71,63,34,27,24,26,20,15,29.73,29.63,11,3,26,0.00
2013-6-9,80,70,60,30,23,10,24,17,12,29.77,29.69,12,5,20,0.00
2013-6-10,81,72,61,36,27,18,27,19,14,29.78,29.70,9,3,18,0.00
2013-6-11,83,72,63,38,28,23,33,20,12,29.78,29.70,10,3,21,0.00
2013-6-12,82,73,62,40,31,24,34,22,17,29.79,29.71,12,4,21,0.00
2013-6-13,78,69,60,43,38,30,49,32,25,29.77,29.68,14,4,26,0.00
2013-6-14,78,68,56,50,42,30,62,40,29,29.74,29.66,9,2,16,0.00
2013-6-15,76,67,57,55,43,35,72,42,34,29.80,29.70,15,3,24,0.01
2013-6-16,76,67,57,48,39,27,55,36,25,29.84,29.77,14,4,29,0.00
2013-6-17,76,67,56,36,30,25,36,25,17,29.82,29.74,14,3,25,0.00
2013-6-18,77,68,56,32,20,4,32,17,7,29.77,29.69,16,6,32,0.00
2013-6-19,78,69,60,36,20,6,29,17,7,29.69,29.64,21,6,39,0.00
2013-6-20,75,67,59,31,20,11,31,17,9,29.74,29.62,18,6,34,0.00
2013-6-21,76,66,57,38,26,4,47,25,8,29.79,29.68,13,4,33,0.00
2013-6-22,75,66,59,33,23,17,34,20,13,29.79,29.69,20,6,36,0.00
2013-6-23,73,65,57,32,24,17,31,22,14,29.74,29.67,21,10,42,0.00
2013-6-24,73,64,56,34,28,21,41,26,16,29.80,29.67,24,11,44,0.00
2013-6-25,75,66,56,39,24,13,50,23,12,29.88,29.76,19,6,38,0.00
2013-6-26,86,70,57,29,20,4,28,16,6,29.94,29.83,14,4,27,0.00
2013-6-27,81,70,60,38,30,20,33,23,17,29.91,29.83,14,5,22,0.00
2013-6-28,85,75,64,41,32,16,25,21,14,29.88,29.74,11,5,19,0.00
2013-6-29,82,75,69,46,38,33,38,27,22,29.75,29.64,17,7,30,0.00
2013-6-30,84,74,60,51,43,35,71,34,22,29.73,29.58,21,6,33,0.01
2013-7-1,80,70,60,55,48,44,71,48,31,29.79,29.67,12,4,24,0.62
2013-7-2,74,65,53,58,51,44,91,64,46,29.94,29.77,18,5,37,0.47
2013-7-3,77,69,58,54,47,41,62,47,37,29.85,29.66,11,3,21,0.00
2013-7-4,79,70,59,53,49,45,69,48,34,29.69,29.61,10,2,22,0.00
2013-7-5,70,63,58,60,54,46,92,74,52,29.79,29.65,14,1,24,0.16
2013-7-6,81,68,59,59,53,51,79,61,38,29.77,29.64,10,1,15,0.06
2013-7-7,79,69,62,56,51,46,74,54,38,29.76,29.62,12,2,23,0.03
2013-7-8,78,68,62,60,52,48,72,57,42,29.82,29.75,12,3,20,0.03
2013-7-9,75,66,57,62,56,46,91,72,47,29.90,29.78,15,6,25,0.01
2013-7-10,74,63,57,62,58,54,95,84,60,29.88,29.75,24,5,37,0.00
2013-7-11,69,62,57,61,57,53,94,85,70,29.87,29.79,11,3,19,0.01
2013-7-12,68,62,56,61,56,53,93,84,70,29.86,29.77,14,2,22,0.00
2013-7-13,71,63,58,62,56,53,91,79,64,29.88,29.78,12,2,17,0.00
2013-7-14,72,65,52,62,56,48,96,74,60,29.87,29.74,16,2,36,0.04
2013-7-15,74,65,54,61,55,47,91,71,53,29.77,29.64,11,3,28,0.02
2013-7-16,64,59,55,60,56,50,95,88,76,29.94,29.73,10,3,16,0.02
2013-7-17,69,62,57,58,52,47,89,69,55,29.98,29.88,15,4,22,0.02
2013-7-18,69,61,55,56,51,46,85,71,58,29.93,29.81,10,3,21,0.01
2013-7-19,68,61,56,59,54,50,93,77,66,29.86,29.75,8,4,20,0.02
2013-7-20,67,60,56,61,57,54,96,90,72,29.81,29.70,12,2,24,0.01
2013-7-21,66,60,56,60,56,53,96,88,74,29.87,29.74,12,5,20,0.01
2013-7-22,66,59,52,61,55,50,96,87,74,29.92,29.83,9,2,14,0.01
2013-7-23,69,62,55,61,56,52,94,82,69,29.91,29.80,10,4,21,0.00
2013-7-24,69,62,56,60,56,53,91,82,69,29.86,29.78,8,4,16,0.01
2013-7-25,68,61,58,63,57,53,95,86,77,29.97,29.83,13,2,19,0.00
2013-7-26,69,62,58,62,57,52,94,84,76,30.02,29.93,9,2,14,0.00
2013-7-27,70,61,55,62,57,52,97,86,68,29.98,29.80,12,1,20,0.00
2013-7-28,72,65,54,57,51,42,94,63,45,29.84,29.75,11,4,23,0.00
2013-7-29,73,66,60,53,46,41,54,48,38,29.94,29.78,13,4,21,0.00
2013-7-30,75,66,58,56,49,44,75,55,43,29.99,29.91,6,2,14,0.00
2013-7-31,76,64,55,59,51,47,86,65,41,29.98,29.89,12,1,19,0.00
2013-8-1,69,63,59,57,53,50,81,70,62,29.93,29.81,11,2,17,0.00
2013-8-2,69,62,57,60,55,48,92,77,58,29.92,29.81,10,2,17,0.00
2013-8-3,73,65,55,61,54,50,84,68,56,29.93,29.83,7,1,11,0.00
2013-8-4,71,64,55,59,53,44,90,67,49,29.90,29.83,9,1,16,0.00
2013-8-5,68,59,53,56,51,48,93,77,55,29.97,29.85,10,2,18,0.00
2013-8-6,62,56,52,59,53,47,95,89,79,29.94,29.86,8,2,16,0.00
2013-8-7,68,60,52,58,51,44,95,73,49,30.00,29.91,11,4,21,0.00
2013-8-8,76,61,48,49,44,30,88,57,26,29.95,29.84,4,0,10,0.00
2013-8-9,74,65,54,48,40,32,53,41,30,29.89,29.81,15,4,21,0.00
2013-8-10,75,66,59,48,39,32,52,38,29,29.90,29.80,11,3,22,0.00
2013-8-11,70,61,54,59,49,32,92,66,35,29.87,29.79,14,2,29,0.00
2013-8-12,75,65,52,58,49,33,92,58,32,29.90,29.82,13,3,21,0.00
2013-8-13,76,66,57,53,41,30,63,41,29,29.90,29.80,7,2,14,0.00
2013-8-14,80,65,52,55,50,41,84,60,36,29.89,29.80,9,0,13,0.00
2013-8-15,76,67,58,56,50,45,75,56,39,29.88,29.80,8,2,15,0.00
2013-8-16,80,70,60,56,49,43,68,49,29,29.87,29.79,8,2,18,0.00
2013-8-17,78,69,60,58,50,46,71,52,36,29.85,29.72,16,2,31,0.00
2013-9-9,60,56,53,56,53,50,94,89,83,29.77,29.69,9,3,15,0.00
2013-9-10,62,56,51,55,50,46,94,80,66,29.88,29.75,13,6,21,0.00
2013-9-11,65,56,49,54,47,40,90,72,57,29.94,29.86,10,4,19,0.00
2013-9-12,69,59,50,58,50,42,87,71,56,29.91,29.76,8,2,14,0.00
2013-9-13,67,58,48,58,52,46,96,80,53,29.78,29.67,7,0,11,0.00
2013-11-3,52,48,43,40,36,34,74,65,56,29.78,29.74,17,8,27,0.16
2013-11-4,50,45,41,42,38,34,88,75,60,29.81,29.72,25,12,44,0.00
2013-11-5,46,39,34,38,34,25,92,82,61,30.18,29.77,22,7,45,0.00
2013-11-6,53,44,34,24,3,-10,63,20,9,30.33,30.18,10,4,27,0.00
2013-11-7,59,49,42,29,12,-10,52,25,9,30.27,30.07,14,8,27,0.00
2013-11-8,59,51,43,32,29,26,54,44,34,30.07,29.95,12,4,18,0.00
2013-11-9,59,50,43,34,31,28,63,48,36,30.07,29.98,13,4,19,0.00
2013-11-10,61,52,41,35,31,29,64,46,33,30.13,30.05,10,3,14,0.00
2013-11-11,63,54,45,37,32,30,57,44,32,30.07,29.98,9,3,20,0.00
2013-11-12,60,52,44,39,34,27,75,52,38,30.15,30.06,12,6,27,0.00
2013-11-13,62,50,42,42,38,32,82,64,46,30.14,29.98,9,2,22,0.00
2013-11-14,59,51,44,36,30,20,64,45,27,29.98,29.81,10,3,19,0.00
2013-11-15,48,45,42,42,39,23,92,79,37,29.81,29.60,32,14,60,0.00
2013-11-16,49,42,37,39,34,21,93,74,39,29.87,29.63,28,13,50,0.00
2013-11-17,51,43,37,39,36,30,90,75,47,30.09,29.87,20,11,37,0.00
2013-11-18,56,48,42,42,37,26,91,68,40,30.09,29.99,13,6,22,0.00
2013-11-19,58,49,43,33,22,1,62,36,14,30.01,29.83,17,8,33,0.00
2013-11-20,55,46,43,37,28,13,77,50,26,29.85,29.76,18,11,38,0.00
2013-11-21,47,43,39,41,36,28,95,77,51,29.93,29.82,25,11,40,0.04
2013-11-22,44,42,39,43,40,38,100,96,92,29.87,29.78,33,24,52,0.14
2013-11-23,39,33,31,38,32,30,97,96,95,30.07,29.82,27,7,46,0.03
2013-11-24,33,30,25,31,28,22,97,94,83,30.21,30.06,9,2,18,0.08
2013-11-25,37,30,22,31,24,17,91,78,48,30.35,30.20,11,3,16,0.03
2013-11-26,42,33,26,26,23,18,88,67,47,30.40,30.28,4,2,14,0.25
2013-11-27,48,35,29,27,22,17,84,62,30,30.31,30.10,3,0,9,0.17
2013-11-28,49,38,27,30,26,19,84,63,42,30.20,30.13,3,1,12,0.21
2013-11-29,53,43,38,35,28,20,76,57,28,30.22,30.14,3,1,11,0.09
2013-11-30,51,45,37,33,23,8,75,46,18,30.21,30.12,3,1,10,0.00
2013-12-1,60,43,30,28,23,12,66,48,20,30.24,30.12,2,0,6,0.00
2013-12-2,62,41,28,25,17,3,65,42,12,30.19,29.99,1,0,5,0.00
2013-12-3,51,43,36,35,18,2,82,41,16,29.99,29.73,13,3,31,0.00
2013-12-4,40,37,32,36,32,27,96,84,61,29.85,29.69,22,12,57,0.01
2013-12-5,32,26,19,31,24,16,96,93,88,30.10,29.80,14,7,34,0.00
2013-12-6,33,24,12,26,15,4,89,68,46,30.30,30.10,14,5,26,0.03
2013-12-7,36,30,25,20,8,-8,82,43,19,30.21,30.02,23,14,49,0.07
2013-12-8,36,29,25,26,23,11,93,79,44,30.15,30.03,22,12,41,0.02
2013-12-9,35,29,24,25,3,-22,92,39,9,30.38,30.08,17,5,30,0.02
2013-12-10,49,39,30,14,-1,-16,34,19,10,30.37,30.15,12,3,20,0.07
2013-12-11,50,44,40,37,30,14,75,58,31,30.18,30.10,17,8,24,0.02
2013-12-12,48,42,34,39,35,26,85,76,68,30.15,30.01,17,11,26,0.01
2013-12-13,41,34,29,30,22,5,90,62,30,30.21,30.00,11,3,22,0.03
2013-12-14,44,36,28,24,16,4,79,45,24,30.37,30.19,12,5,20,0.02
2013-12-15,59,46,30,26,11,-8,49,25,12,30.35,30.21,11,2,23,0.02
2013-12-16,64,54,47,20,11,-3,28,18,9,30.21,30.10,8,2,14,0.01
2013-12-17,63,52,46,24,14,8,28,22,18,30.18,30.06,7,1,11,0.01
2013-12-18,61,51,42,24,13,5,48,23,11,30.08,29.74,8,1,13,0.00
2013-12-19,43,38,33,24,21,17,67,51,37,29.74,29.65,22,5,33,0.00
2013-12-20,34,30,26,31,26,20,93,86,58,29.82,29.60,28,7,40,0.16
2013-12-21,27,26,25,26,25,23,94,93,90,29.91,29.81,15,4,28,0.00
2013-12-22,36,30,26,28,9,-3,81,46,23,30.41,30.30,4,1,7,0.10
2013-12-23,48,39,30,16,4,-10,45,24,9,30.47,30.31,12,4,19,0.13
2013-12-24,55,46,38,25,3,-10,44,19,9,30.31,30.07,13,4,24,0.06
2013-12-25,46,39,33,24,11,-6,51,31,14,30.26,30.10,12,3,18,0.06
2013-12-26,48,39,31,14,8,-1,44,28,13,30.27,30.20,9,3,21,0.05
2013-12-27,45,39,36,18,10,1,38,29,20,30.23,30.14,8,4,21,0.00
2013-12-28,49,40,34,18,6,-10,49,24,13,30.19,29.96,11,3,17,0.00
2013-12-29,42,35,28,22,16,11,57,46,35,30.21,29.92,10,3,16,0.00
2013-12-30,47,39,29,20,12,5,55,34,18,30.34,30.20,10,4,20,0.00
2013-12-31,52,42,34,22,14,6,44,32,25,30.30,30.12,7,1,11,0.00
2014-1-1,51,44,38,20,18,13,46,35,24,30.16,30.07,11,4,17,0.00
2014-1-2,54,46,39,24,18,13,40,33,21,30.17,30.06,10,5,17,0.00